Latest Weather Observations for Halls Creek

IDW60801

Issued at 6:53 am WST Wednesday 18 September 2019 (issued every 10 minutes, with the page automatically refreshed every 10 minutes)

About weather observations | Map of weather stations | Latest weather observations for WA | Other Formats
Station Details ID: 002079 Name: HALLS CREEK AIRPORT Lat: -18.23 Lon: 127.67 Height: 409.4 m
Data from the previous 72 hours. | See also: Recent months at Halls Creek
Date/Time
WST
Temp
°C
App
Temp
°C
Dew
Point
°C
Rel
Hum
%
Delta-T
°C
Wind Press
QNH
hPa
Press
MSL
hPa
Rain since
9am
mm
Dir  Spd
km/h
Gust
km/h
Spd
kts
Gust
kts
18/06:30am 21.7 19.8 0.3 24 9.9 CALM 0 0 0 0 1018.6 1016.1 0.0
18/06:00am 18.8 17.0 0.9 30 8.1 CALM 0 0 0 0 1018.4 1015.9 0.0
18/05:30am 16.4 14.3 -0.8 31 7.4 CALM 0 0 0 0 1018.2 1015.7 0.0
18/05:00am 16.5 14.4 -0.7 31 7.4 CALM 0 0 0 0 1017.9 1015.4 0.0
18/04:30am 16.7 14.2 -0.9 30 7.6 ENE 2 6 1 3 1017.7 1015.2 0.0
18/04:00am 16.8 13.8 -1.8 28 7.9 ESE 4 9 2 5 1017.3 1014.8 0.0
18/03:30am 18.5 16.5 -0.3 28 8.3 CALM 0 0 0 0 1017.0 1014.5 0.0
18/03:00am 17.2 15.1 -1.0 29 7.8 CALM 0 0 0 0 1016.8 1014.3 0.0
18/02:30am 17.4 15.1 -2.3 26 8.3 CALM 0 0 0 0 1016.8 1014.3 0.0
18/02:00am 17.2 14.8 -3.0 25 8.4 CALM 0 0 0 0 1016.8 1014.3 0.0
18/01:30am 19.3 15.8 -1.7 24 9.1 NNE 7 9 4 5 1017.0 1014.5 0.0
18/01:00am 18.7 15.6 -2.3 24 8.9 SE 4 15 2 8 1017.1 1014.6 0.0
18/12:30am 18.8 16.5 -2.7 23 9.1 CALM 0 0 0 0 1016.9 1014.4 0.0
18/12:00am 20.8 18.0 -3.0 20 10.2 ENE 2 9 1 5 1017.1 1014.6 0.0
 
Date/Time
WST
Temp
°C
App
Temp
°C
Dew
Point
°C
Rel
Hum
%
Delta-T
°C
Wind Press
QNH
hPa
Press
MSL
hPa
Rain since
9am
mm
Dir  Spd
km/h
Gust
km/h
Spd
kts
Gust
kts
17/11:30pm 20.2 17.4 -3.4 20 10.0 SE 2 9 1 5 1017.2 1014.7 0.0
17/11:00pm 20.9 18.1 -2.9 20 10.2 E 2 7 1 4 1017.3 1014.8 0.0
17/10:30pm 21.2 17.5 -2.6 20 10.3 SW 7 7 4 4 1017.4 1015.0 0.0
17/10:00pm 20.9 17.3 -2.2 21 10.0 NW 7 9 4 5 1017.4 1015.0 0.0
17/09:30pm 22.5 20.3 -1.6 20 10.8 CALM 0 0 0 0 1017.7 1015.2 0.0
17/09:00pm 21.6 19.2 -3.0 19 10.6 CALM 0 0 0 0 1017.7 1015.2 0.0
17/08:30pm 22.8 20.3 -4.3 16 11.5 CALM 0 6 0 3 1017.4 1015.0 0.0
17/08:00pm 24.7 22.3 -2.8 16 12.2 CALM 0 0 0 0 1017.2 1014.7 0.0
17/07:30pm 23.5 21.0 -3.7 16 11.8 CALM 0 0 0 0 1016.8 1014.3 0.0
17/07:00pm 24.7 22.1 -4.6 14 12.6 CALM 0 0 0 0 1016.5 1014.0 0.0
17/06:30pm 25.7 22.0 -4.7 13 13.2 SE 6 7 3 4 1016.1 1013.6 0.0
17/06:00pm 27.4 24.2 -6.9 10 14.5 E 2 6 1 3 1015.8 1013.3 0.0
17/05:30pm 30.2 26.3 -6.1 9 15.9 E 6 7 3 4 1015.5 1013.0 0.0
17/05:00pm 32.9 28.9 -5.7 8 17.4 ENE 7 13 4 7 1015.2 1012.6 0.0
17/04:30pm 33.7 28.1 -6.8 7 18.1 ENE 15 19 8 10 1014.8 1012.3 0.0
17/04:00pm 33.6 29.1 -6.9 7 18.0 ENE 9 17 5 9 1014.7 1012.2 0.0
17/03:30pm 34.6 30.5 -6.2 7 18.5 NE 7 15 4 8 1014.5 1012.0 0.0
17/03:00pm 34.5 29.3 -6.3 7 18.5 E 13 24 7 13 1014.5 1012.0 0.0
17/02:30pm 33.9 29.0 -6.7 7 18.2 ENE 11 20 6 11 1014.6 1012.1 0.0
17/02:00pm 34.6 30.2 -6.2 7 18.5 N 9 13 5 7 1014.9 1012.4 0.0
17/01:30pm 33.9 29.0 -6.7 7 18.2 E 11 20 6 11 1015.4 1012.9 0.0
17/01:00pm 33.9 27.5 -6.7 7 18.2 E 19 30 10 16 1015.8 1013.3 0.0
17/12:30pm 33.7 28.1 -6.8 7 18.1 N 15 24 8 13 1016.2 1013.7 0.0
17/12:00pm 35.1 28.8 -5.8 7 18.7 NE 19 28 10 15 1016.6 1014.1 0.0
17/11:30am 33.7 27.7 -6.8 7 18.1 NE 17 35 9 19 1016.8 1014.3 0.0
17/11:00am 33.6 28.3 -6.9 7 18.0 E 13 24 7 13 1017.1 1014.6 0.0
17/10:30am 33.6 28.7 -6.9 7 18.0 NE 11 24 6 13 1017.4 1015.0 0.0
17/10:00am 32.9 26.7 -9.4 6 17.9 SE 17 28 9 15 1017.8 1015.3 0.0
17/09:30am 32.8 28.4 -5.7 8 17.4 ESE 9 19 5 10 1018.2 1015.7 0.0
17/09:00am 30.9 26.1 -5.6 9 16.2 ENE 11 17 6 9 1018.5 1016.0 0.0
17/08:30am 30.3 25.3 -4.7 10 15.7 NE 13 19 7 10 1018.5 1016.0 0.0
17/08:00am 27.9 24.1 -4.1 12 14.2 ENE 7 11 4 6 1018.4 1015.9 0.0
17/07:30am 25.5 23.2 -2.1 16 12.5 CALM 0 0 0 0 1018.2 1015.7 0.0
17/07:00am 21.9 19.7 -1.4 21 10.4 CALM 0 0 0 0 1017.9 1015.4 0.0
17/06:30am 19.5 17.4 -1.0 25 9.0 CALM 0 0 0 0 1017.4 1015.0 0.0
17/06:00am 15.8 13.7 -0.8 32 7.1 CALM 0 0 0 0 1017.1 1014.6 0.0
17/05:30am 13.3 11.1 -1.8 35 6.2 CALM 0 0 0 0 1017.0 1014.5 0.0
17/05:00am 13.6 11.4 -1.9 34 6.3 CALM 0 0 0 0 1016.8 1014.3 0.0
17/04:30am 13.3 10.9 -3.0 32 6.5 CALM 0 0 0 0 1016.5 1014.0 0.0
17/04:00am 14.1 11.7 -2.8 31 6.8 CALM 0 0 0 0 1016.2 1013.7 0.0
17/03:30am 14.8 12.5 -2.6 30 7.1 CALM 0 0 0 0 1016.1 1013.6 0.0
17/03:00am 15.3 13.0 -2.2 30 7.2 CALM 0 0 0 0 1015.9 1013.4 0.0
17/02:30am 15.3 13.0 -2.2 30 7.2 CALM 0 0 0 0 1015.9 1013.4 0.0
17/02:00am 16.5 14.3 -1.6 29 7.7 CALM 0 0 0 0 1015.8 1013.3 0.0
17/01:30am 15.6 13.2 -2.8 28 7.5 CALM 0 0 0 0 1015.9 1013.4 0.0
17/01:00am 17.2 15.0 -1.4 28 8.0 CALM 0 0 0 0 1015.9 1013.4 0.0
17/12:30am 16.7 14.3 -2.9 26 8.1 CALM 0 0 0 0 1016.1 1013.6 0.0
17/12:00am 17.3 14.8 -4.0 23 8.6 CALM 0 0 0 0 1016.1 1013.6 0.0
 
Date/Time
WST
Temp
°C
App
Temp
°C
Dew
Point
°C
Rel
Hum
%
Delta-T
°C
Wind Press
QNH
hPa
Press
MSL
hPa
Rain since
9am
mm
Dir  Spd
km/h
Gust
km/h
Spd
kts
Gust
kts
16/11:30pm 18.4 16.0 -3.1 23 9.0 CALM 0 0 0 0 1016.2 1013.7 0.0
16/11:00pm 19.4 17.1 -2.2 23 9.3 CALM 0 0 0 0 1016.2 1013.7 0.0
16/10:30pm 19.6 17.3 -2.7 22 9.5 CALM 0 0 0 0 1016.4 1013.9 0.0
16/10:00pm 19.3 17.0 -2.3 23 9.2 CALM 0 0 0 0 1016.5 1014.0 0.0
16/09:30pm 19.6 17.0 -4.6 19 9.9 CALM 0 0 0 0 1016.4 1013.9 0.0
16/09:00pm 21.3 19.0 -2.5 20 10.3 CALM 0 0 0 0 1016.4 1013.9 0.0
16/08:30pm 20.9 18.5 -2.9 20 10.2 CALM 0 0 0 0 1016.4 1013.9 0.0
16/08:00pm 21.3 18.9 -3.2 19 10.5 CALM 0 0 0 0 1016.2 1013.7 0.0
16/07:30pm 22.8 20.2 -5.2 15 11.7 CALM 0 0 0 0 1016.0 1013.5 0.0
16/07:00pm 23.8 21.4 -3.5 16 11.9 CALM 0 0 0 0 1015.6 1013.1 0.0
16/06:30pm 26.1 23.4 -5.5 12 13.5 CALM 0 7 0 4 1015.3 1012.8 0.0
16/06:00pm 28.3 24.4 -4.9 11 14.6 NE 7 9 4 5 1014.8 1012.3 0.0
16/05:30pm 29.8 25.9 -5.1 10 15.5 NNE 7 11 4 6 1014.6 1012.1 0.0
16/05:00pm 32.0 26.9 -4.8 9 16.7 ENE 13 17 7 9 1014.4 1011.9 0.0
16/04:30pm 32.7 28.9 -5.8 8 17.3 E 6 15 3 8 1014.2 1011.7 0.0
16/04:00pm 33.1 28.0 -5.5 8 17.5 E 13 17 7 9 1014.2 1011.7 0.0
16/03:30pm 33.4 29.1 -5.3 8 17.7 ESE 9 19 5 10 1014.1 1011.6 0.0
16/03:00pm 33.3 27.8 -5.4 8 17.6 NE 15 26 8 14 1014.2 1011.7 0.0
16/02:30pm 34.0 28.2 -4.9 8 17.9 ENE 17 30 9 16 1014.4 1011.9 0.0
16/02:00pm 33.3 28.2 -5.4 8 17.6 NE 13 22 7 12 1014.6 1012.1 0.0
16/01:30pm 34.2 27.8 -6.5 7 18.3 ENE 19 30 10 16 1014.7 1012.2 0.0
16/01:00pm 34.0 28.2 -4.9 8 17.9 NNE 17 35 9 19 1015.2 1012.6 0.0
16/12:30pm 34.3 28.5 -4.6 8 18.1 E 17 37 9 20 1015.7 1013.2 0.0
16/12:00pm 33.3 26.9 -5.4 8 17.6 NE 20 33 11 18 1016.3 1013.8 0.0
16/11:30am 33.3 27.0 -5.4 8 17.6 NE 19 35 10 19 1016.6 1014.1 0.0
16/11:00am 32.6 26.3 -5.9 8 17.3 NE 19 32 10 17 1016.8 1014.3 0.0
16/10:30am 32.6 26.7 -5.9 8 17.3 E 17 32 9 17 1017.4 1015.0 0.0
16/10:00am 32.3 26.0 -6.1 8 17.1 ENE 19 28 10 15 1017.9 1015.4 0.0
16/09:30am 32.2 24.9 -6.2 8 17.1 E 24 39 13 21 1018.3 1015.8 0.0
16/09:00am 31.6 25.0 -6.6 8 16.8 E 20 30 11 16 1018.6 1016.1 0.0
16/08:30am 30.1 24.8 -7.7 8 16.1 ESE 13 19 7 10 1018.8 1016.3 0.0
16/08:00am 27.9 22.5 -7.9 9 14.9 SE 13 17 7 9 1018.9 1016.4 0.0
16/07:30am 26.4 20.6 -9.0 9 14.3 ESE 15 19 8 10 1019.0 1016.5 0.0
16/07:00am 23.3 20.3 -4.8 15 11.9 ESE 2 7 1 4 1018.7 1016.2 0.0
16/06:30am 19.0 16.7 -2.6 23 9.2 CALM 0 0 0 0 1018.4 1015.9 0.0
16/06:00am 14.6 12.1 -4.2 27 7.4 CALM 0 0 0 0 1018.0 1015.5 0.0
16/05:30am 12.3 9.6 -5.7 28 6.7 CALM 0 0 0 0 1017.8 1015.3 0.0
16/05:00am 13.1 10.5 -5.0 28 6.9 CALM 0 0 0 0 1017.5 1015.1 0.0
16/04:30am 14.1 11.5 -4.6 27 7.2 CALM 0 0 0 0 1017.4 1015.0 0.0
16/04:00am 14.1 11.5 -5.1 26 7.3 CALM 0 0 0 0 1017.3 1014.8 0.0
16/03:30am 15.1 12.5 -4.8 25 7.8 CALM 0 4 0 2 1016.9 1014.4 0.0
16/03:00am 15.5 12.8 -5.5 23 8.1 CALM 0 0 0 0 1016.7 1014.2 0.0
16/02:30am 16.2 13.5 -5.5 22 8.4 CALM 0 0 0 0 1016.5 1014.0 0.0
16/02:00am 16.9 13.9 -5.5 21 8.8 ESE 2 6 1 3 1016.5 1014.0 0.0
16/01:30am 17.7 14.7 -5.5 20 9.2 E 2 7 1 4 1016.6 1014.1 0.0
16/01:00am 18.2 14.4 -5.1 20 9.3 E 6 7 3 4 1016.7 1014.2 0.0
16/12:30am 18.3 15.3 -5.0 20 9.4 ESE 2 6 1 3 1016.8 1014.3 0.0
16/12:00am 17.7 15.0 -5.5 20 9.2 CALM 0 0 0 0 1017.0 1014.5 0.0
 
Date/Time
WST
Temp
°C
App
Temp
°C
Dew
Point
°C
Rel
Hum
%
Delta-T
°C
Wind Press
QNH
hPa
Press
MSL
hPa
Rain since
9am
mm
Dir  Spd
km/h
Gust
km/h
Spd
kts
Gust
kts
15/11:30pm 18.0 14.2 -5.3 20 9.3 E 6 7 3 4 1017.2 1014.7 0.0
15/11:00pm 19.2 15.4 -5.7 18 9.9 E 6 6 3 3 1017.2 1014.7 0.0
15/10:30pm 20.7 16.9 -5.2 17 10.6 ENE 6 6 3 3 1017.3 1014.8 0.0
15/10:00pm 21.2 18.2 -5.6 16 10.9 E 2 6 1 3 1017.4 1015.0 0.0
15/09:30pm 24.1 19.3 -6.0 13 12.5 ESE 11 13 6 7 1017.4 1015.0 0.0
15/09:00pm 24.1 19.3 -6.0 13 12.5 SE 11 15 6 8 1017.5 1015.1 0.0
15/08:30pm 25.0 20.2 -6.3 12 13.1 SE 11 13 6 7 1017.5 1015.1 0.0
15/08:00pm 23.5 19.0 -6.5 13 12.3 ESE 9 11 5 6 1017.3 1014.8 0.0
15/07:30pm 23.8 19.4 -6.2 13 12.4 SE 9 13 5 7 1017.0 1014.5 0.0
15/07:00pm 25.5 21.0 -7.1 11 13.5 ESE 9 11 5 6 1016.6 1014.1 0.0
15/06:30pm 27.1 22.2 -7.1 10 14.4 E 11 13 6 7 1016.4 1013.9 0.0
15/06:00pm 28.3 23.4 -7.6 9 15.1 E 11 13 6 7 1016.2 1013.7 0.0
15/05:30pm 29.9 24.5 -7.9 8 16.0 E 13 20 7 11 1015.9 1013.4 0.0
15/05:00pm 31.6 25.6 -6.6 8 16.8 E 17 24 9 13 1015.6 1013.1 0.0
15/04:30pm 32.4 25.9 -6.0 8 17.2 ENE 20 28 11 15 1015.4 1012.9 0.0
15/04:00pm 33.0 26.5 -5.6 8 17.5 NE 20 28 11 15 1015.4 1012.9 0.0
15/03:30pm 33.4 27.2 -5.3 8 17.7 NE 19 30 10 16 1015.3 1012.8 0.0
15/03:00pm 33.5 27.3 -5.2 8 17.7 NE 19 32 10 17 1015.2 1012.6 0.0
15/02:30pm 33.1 25.9 -5.5 8 17.5 NE 24 35 13 19 1015.4 1012.9 0.0
15/02:00pm 33.5 26.9 -3.7 9 17.4 ENE 22 32 12 17 1015.5 1013.0 0.0
15/01:30pm 34.3 27.9 -4.6 8 18.1 ENE 20 33 11 18 1015.7 1013.2 0.0
15/01:00pm 33.3 25.5 -3.8 9 17.3 NE 28 46 15 25 1016.0 1013.5 0.0
15/12:30pm 32.7 26.4 -4.3 9 17.1 NE 20 35 11 19 1016.3 1013.8 0.0
15/12:12pm 33.1 25.7 -4.0 9 17.3 ENE 26 46 14 25 1016.7 1014.2 0.0
15/12:00pm 31.9 23.6 -4.9 9 16.7 ENE 30 46 16 25 1017.0 1014.5 0.0
15/11:55am 32.9 25.1 -4.1 9 17.2 ENE 28 46 15 25 1017.0 1014.5 0.0
15/11:30am 32.3 25.9 -4.6 9 16.9 NE 20 32 11 17 1017.3 1014.8 0.0
15/11:18am 32.8 24.4 -5.7 8 17.4 ENE 30 52 16 28 1017.5 1015.1 0.0
15/11:00am 32.4 23.4 -6.0 8 17.2 NE 33 43 18 23 1018.1 1015.6 0.0
15/10:45am 33.5 25.2 -5.2 8 17.7 ENE 30 48 16 26 1018.2 1015.7 0.0
15/10:30am 32.3 22.8 -7.8 7 17.4 ENE 35 50 19 27 1018.4 1015.9 0.0
15/10:23am 31.9 23.1 -6.4 8 17.0 E 32 50 17 27 1018.5 1016.0 0.0
15/10:00am 32.2 23.8 -6.2 8 17.1 E 30 41 16 22 1018.8 1016.3 0.0
15/09:30am 31.2 22.3 -6.9 8 16.6 ENE 32 43 17 23 1019.2 1016.7 0.0
15/09:00am 30.3 22.3 -6.1 9 15.9 E 28 35 15 19 1019.6 1017.2 0.0
15/08:30am 28.7 21.7 -7.3 9 15.3 E 22 30 12 16 1019.9 1017.5 0.0
15/08:00am 26.7 20.1 -7.4 10 14.1 E 20 26 11 14 1020.0 1017.6 0.0
15/07:30am 24.9 17.9 -7.5 11 13.2 ESE 22 30 12 16 1020.1 1017.7 0.0
15/07:00am 23.5 18.2 -7.5 12 12.4 ESE 13 19 7 10 1019.7 1017.3 0.0

Other formats

Comma delimited format used in spreadsheet applications
http://www.bom.gov.au/fwo/IDW60801/IDW60801.94212.axf

JavaScript Object Notation format (JSON) in row-major order
http://www.bom.gov.au/fwo/IDW60801/IDW60801.94212.json

Data quality

Most of these data are generated automatically and are frequently updated. Quality checks on data are not normally performed. It is possible for incorrect values to appear. Refer to information at About Latest Weather Observations and please check the disclaimer before using these data.